sensor_id;sensor_type;location;lat;lon;timestamp;pressure;altitude;pressure_sealevel;temperature;humidity
56038;BME280;41907;47.848;9.000;2023-03-31T00:01:04;95308.25;;;7.82;100.00
56038;BME280;41907;47.848;9.000;2023-03-31T00:03:29;95303.28;;;7.89;100.00
56038;BME280;41907;47.848;9.000;2023-03-31T00:05:58;95296.91;;;7.90;100.00
56038;BME280;41907;47.848;9.000;2023-03-31T00:08:24;95297.19;;;7.89;100.00
56038;BME280;41907;47.848;9.000;2023-03-31T00:10:49;95285.66;;;7.71;100.00
56038;BME280;41907;47.848;9.000;2023-03-31T00:13:15;95285.38;;;7.59;100.00
56038;BME280;41907;47.848;9.000;2023-03-31T00:15:40;95278.34;;;7.54;100.00
56038;BME280;41907;47.848;9.000;2023-03-31T00:18:05;95269.97;;;7.47;100.00
56038;BME280;41907;47.848;9.000;2023-03-31T00:20:31;95267.72;;;7.54;100.00
56038;BME280;41907;47.848;9.000;2023-03-31T00:22:57;95259.03;;;7.62;100.00
56038;BME280;41907;47.848;9.000;2023-03-31T00:25:23;95248.91;;;7.64;100.00
56038;BME280;41907;47.848;9.000;2023-03-31T00:27:48;95250.38;;;7.70;100.00
56038;BME280;41907;47.848;9.000;2023-03-31T00:30:17;95256.22;;;7.81;100.00
56038;BME280;41907;47.848;9.000;2023-03-31T00:32:42;95259.09;;;7.93;100.00
56038;BME280;41907;47.848;9.000;2023-03-31T00:35:07;95242.53;;;7.88;100.00
56038;BME280;41907;47.848;9.000;2023-03-31T00:37:33;95233.41;;;7.80;100.00
56038;BME280;41907;47.848;9.000;2023-03-31T00:39:58;95239.63;;;7.98;100.00
56038;BME280;41907;47.848;9.000;2023-03-31T00:42:24;95236.59;;;8.13;100.00
56038;BME280;41907;47.848;9.000;2023-03-31T00:47:33;95220.25;;;8.19;100.00
56038;BME280;41907;47.848;9.000;2023-03-31T00:49:59;95218.94;;;7.86;100.00
56038;BME280;41907;47.848;9.000;2023-03-31T00:52:30;95233.66;;;7.92;100.00
56038;BME280;41907;47.848;9.000;2023-03-31T00:54:57;95223.78;;;8.15;100.00
56038;BME280;41907;47.848;9.000;2023-03-31T00:57:24;95215.00;;;8.06;100.00
56038;BME280;41907;47.848;9.000;2023-03-31T00:59:52;95221.69;;;8.03;100.00
56038;BME280;41907;47.848;9.000;2023-03-31T01:02:18;95223.88;;;8.01;100.00
56038;BME280;41907;47.848;9.000;2023-03-31T01:04:48;95223.94;;;8.10;100.00
56038;BME280;41907;47.848;9.000;2023-03-31T01:07:32;95224.72;;;8.10;100.00
56038;BME280;41907;47.848;9.000;2023-03-31T01:09:59;95236.69;;;7.99;100.00
56038;BME280;41907;47.848;9.000;2023-03-31T01:12:25;95235.66;;;8.09;100.00
56038;BME280;41907;47.848;9.000;2023-03-31T01:14:51;95247.09;;;8.18;100.00
56038;BME280;41907;47.848;9.000;2023-03-31T01:17:17;95254.34;;;8.26;100.00
56038;BME280;41907;47.848;9.000;2023-03-31T01:25:37;95258.72;;;8.31;100.00
56038;BME280;41907;47.848;9.000;2023-03-31T01:30:08;95252.25;;;8.37;100.00
56038;BME280;41907;47.848;9.000;2023-03-31T01:40:43;95203.25;;;8.60;100.00
56038;BME280;41907;47.848;9.000;2023-03-31T01:45:52;95205.06;;;8.42;100.00
56038;BME280;41907;47.848;9.000;2023-03-31T01:51:06;95169.00;;;8.19;100.00
56038;BME280;41907;47.848;9.000;2023-03-31T01:56:19;95154.38;;;7.77;100.00
56038;BME280;41907;47.848;9.000;2023-03-31T01:58:52;95164.84;;;7.73;100.00
56038;BME280;41907;47.848;9.000;2023-03-31T02:03:57;95138.22;;;7.65;100.00
56038;BME280;41907;47.848;9.000;2023-03-31T02:06:26;95151.91;;;7.80;100.00
56038;BME280;41907;47.848;9.000;2023-03-31T02:08:56;95143.88;;;8.03;100.00
56038;BME280;41907;47.848;9.000;2023-03-31T02:11:22;95139.88;;;8.14;100.00
56038;BME280;41907;47.848;9.000;2023-03-31T02:13:49;95142.16;;;7.98;100.00
56038;BME280;41907;47.848;9.000;2023-03-31T02:16:17;95141.16;;;8.16;100.00
56038;BME280;41907;47.848;9.000;2023-03-31T02:18:46;95121.25;;;8.36;100.00
56038;BME280;41907;47.848;9.000;2023-03-31T02:21:14;95108.59;;;8.33;100.00
56038;BME280;41907;47.848;9.000;2023-03-31T02:23:40;95105.44;;;8.31;100.00
56038;BME280;41907;47.848;9.000;2023-03-31T02:26:17;95104.38;;;8.01;100.00
56038;BME280;41907;47.848;9.000;2023-03-31T02:28:44;95111.91;;;8.08;100.00
56038;BME280;41907;47.848;9.000;2023-03-31T02:31:24;95106.56;;;7.99;100.00
56038;BME280;41907;47.848;9.000;2023-03-31T02:33:51;95095.06;;;8.21;100.00
56038;BME280;41907;47.848;9.000;2023-03-31T02:36:16;95100.69;;;8.11;100.00
56038;BME280;41907;47.848;9.000;2023-03-31T02:38:44;95079.28;;;8.16;100.00
56038;BME280;41907;47.848;9.000;2023-03-31T02:41:10;95088.81;;;8.17;100.00
56038;BME280;41907;47.848;9.000;2023-03-31T02:43:35;95076.66;;;8.25;100.00
56038;BME280;41907;47.848;9.000;2023-03-31T02:46:00;95079.19;;;8.30;100.00
56038;BME280;41907;47.848;9.000;2023-03-31T02:48:27;95064.03;;;8.30;100.00
56038;BME280;41907;47.848;9.000;2023-03-31T03:07:05;95001.09;;;8.39;100.00
56038;BME280;41907;47.848;9.000;2023-03-31T03:17:12;94993.75;;;8.53;100.00
56038;BME280;41907;47.848;9.000;2023-03-31T03:19:41;94987.34;;;8.46;100.00
56038;BME280;41907;47.848;9.000;2023-03-31T03:22:07;94983.41;;;8.43;100.00
56038;BME280;41907;47.848;9.000;2023-03-31T03:24:32;94982.63;;;8.43;100.00
56038;BME280;41907;47.848;9.000;2023-03-31T03:26:58;94970.44;;;8.42;100.00
56038;BME280;41907;47.848;9.000;2023-03-31T03:29:24;94953.19;;;8.31;100.00
56038;BME280;41907;47.848;9.000;2023-03-31T03:31:51;94958.19;;;8.23;100.00
56038;BME280;41907;47.848;9.000;2023-03-31T03:34:16;94946.47;;;8.07;100.00
56038;BME280;41907;47.848;9.000;2023-03-31T03:36:44;94947.38;;;8.03;100.00
56038;BME280;41907;47.848;9.000;2023-03-31T03:39:09;94948.81;;;8.09;100.00
56038;BME280;41907;47.848;9.000;2023-03-31T03:41:35;94948.50;;;8.10;100.00
56038;BME280;41907;47.848;9.000;2023-03-31T03:44:00;94937.25;;;8.13;100.00
56038;BME280;41907;47.848;9.000;2023-03-31T03:46:25;94928.97;;;8.15;100.00
56038;BME280;41907;47.848;9.000;2023-03-31T03:48:51;94928.66;;;8.16;100.00
56038;BME280;41907;47.848;9.000;2023-03-31T03:51:16;94918.66;;;8.13;100.00
56038;BME280;41907;47.848;9.000;2023-03-31T03:53:41;94920.38;;;8.09;100.00
56038;BME280;41907;47.848;9.000;2023-03-31T03:56:06;94901.63;;;8.06;100.00
56038;BME280;41907;47.848;9.000;2023-03-31T03:58:32;94889.00;;;8.11;100.00
56038;BME280;41907;47.848;9.000;2023-03-31T04:00:58;94875.06;;;8.06;100.00
56038;BME280;41907;47.848;9.000;2023-03-31T04:03:23;94868.38;;;8.00;100.00
56038;BME280;41907;47.848;9.000;2023-03-31T04:05:48;94857.13;;;8.11;100.00
56038;BME280;41907;47.848;9.000;2023-03-31T04:08:14;94851.81;;;8.11;100.00
56038;BME280;41907;47.848;9.000;2023-03-31T04:10:46;94851.19;;;8.06;100.00
56038;BME280;41907;47.848;9.000;2023-03-31T04:13:13;94835.09;;;8.11;100.00
56038;BME280;41907;47.848;9.000;2023-03-31T04:15:38;94832.56;;;8.14;100.00
56038;BME280;41907;47.848;9.000;2023-03-31T04:18:04;94827.75;;;8.16;100.00
56038;BME280;41907;47.848;9.000;2023-03-31T04:20:29;94819.94;;;8.11;100.00
56038;BME280;41907;47.848;9.000;2023-03-31T04:22:55;94810.56;;;8.14;100.00
56038;BME280;41907;47.848;9.000;2023-03-31T04:25:21;94799.31;;;8.08;100.00
56038;BME280;41907;47.848;9.000;2023-03-31T04:27:47;94783.38;;;8.17;100.00
56038;BME280;41907;47.848;9.000;2023-03-31T04:30:19;94784.78;;;8.32;100.00
56038;BME280;41907;47.848;9.000;2023-03-31T04:32:51;94787.13;;;8.33;100.00
56038;BME280;41907;47.848;9.000;2023-03-31T04:35:17;94796.94;;;8.41;100.00
56038;BME280;41907;47.848;9.000;2023-03-31T04:37:44;94787.72;;;8.47;100.00
56038;BME280;41907;47.848;9.000;2023-03-31T04:40:10;94777.75;;;8.36;100.00
56038;BME280;41907;47.848;9.000;2023-03-31T04:42:35;94766.47;;;8.47;100.00
56038;BME280;41907;47.848;9.000;2023-03-31T04:45:01;94751.13;;;8.53;100.00
56038;BME280;41907;47.848;9.000;2023-03-31T04:47:26;94742.66;;;8.59;100.00
56038;BME280;41907;47.848;9.000;2023-03-31T04:49:51;94737.78;;;8.62;100.00
56038;BME280;41907;47.848;9.000;2023-03-31T04:52:17;94726.84;;;8.63;100.00
56038;BME280;41907;47.848;9.000;2023-03-31T04:54:42;94715.94;;;8.56;100.00
56038;BME280;41907;47.848;9.000;2023-03-31T04:57:07;94729.81;;;8.62;100.00
56038;BME280;41907;47.848;9.000;2023-03-31T04:59:32;94734.03;;;8.63;100.00
56038;BME280;41907;47.848;9.000;2023-03-31T05:01:57;94719.19;;;8.62;100.00
56038;BME280;41907;47.848;9.000;2023-03-31T05:04:23;94729.97;;;8.65;100.00
56038;BME280;41907;47.848;9.000;2023-03-31T05:06:48;94727.13;;;8.70;100.00
56038;BME280;41907;47.848;9.000;2023-03-31T05:09:14;94728.41;;;8.64;100.00
56038;BME280;41907;47.848;9.000;2023-03-31T05:11:39;94720.22;;;8.78;100.00
56038;BME280;41907;47.848;9.000;2023-03-31T05:14:05;94725.81;;;8.85;100.00
56038;BME280;41907;47.848;9.000;2023-03-31T05:16:30;94712.34;;;8.90;100.00
56038;BME280;41907;47.848;9.000;2023-03-31T05:18:55;94714.81;;;8.95;100.00
56038;BME280;41907;47.848;9.000;2023-03-31T05:21:20;94721.88;;;8.91;100.00
56038;BME280;41907;47.848;9.000;2023-03-31T05:23:46;94726.56;;;8.94;100.00
56038;BME280;41907;47.848;9.000;2023-03-31T05:26:12;94730.16;;;8.89;100.00
56038;BME280;41907;47.848;9.000;2023-03-31T05:28:37;94738.41;;;8.96;100.00
56038;BME280;41907;47.848;9.000;2023-03-31T05:31:03;94742.19;;;8.95;100.00
56038;BME280;41907;47.848;9.000;2023-03-31T05:33:28;94765.94;;;9.01;100.00
56038;BME280;41907;47.848;9.000;2023-03-31T05:35:54;94762.97;;;9.02;100.00
56038;BME280;41907;47.848;9.000;2023-03-31T05:38:19;94751.91;;;8.91;100.00
56038;BME280;41907;47.848;9.000;2023-03-31T05:40:45;94742.50;;;8.94;100.00
56038;BME280;41907;47.848;9.000;2023-03-31T05:43:10;94739.25;;;8.88;100.00
56038;BME280;41907;47.848;9.000;2023-03-31T05:45:36;94745.50;;;8.92;100.00
56038;BME280;41907;47.848;9.000;2023-03-31T05:48:01;94747.84;;;8.94;100.00
56038;BME280;41907;47.848;9.000;2023-03-31T05:50:26;94746.16;;;8.81;100.00
56038;BME280;41907;47.848;9.000;2023-03-31T05:52:51;94755.69;;;8.82;100.00
56038;BME280;41907;47.848;9.000;2023-03-31T05:55:17;94762.25;;;8.84;100.00
56038;BME280;41907;47.848;9.000;2023-03-31T05:57:42;94755.84;;;8.85;100.00
56038;BME280;41907;47.848;9.000;2023-03-31T06:00:08;94731.03;;;8.73;100.00
56038;BME280;41907;47.848;9.000;2023-03-31T06:02:35;94733.44;;;8.57;100.00
56038;BME280;41907;47.848;9.000;2023-03-31T06:05:00;94708.09;;;8.59;100.00
56038;BME280;41907;47.848;9.000;2023-03-31T06:07:25;94722.63;;;8.62;100.00
56038;BME280;41907;47.848;9.000;2023-03-31T06:09:51;94710.16;;;8.54;100.00
56038;BME280;41907;47.848;9.000;2023-03-31T06:12:16;94699.84;;;8.52;100.00
56038;BME280;41907;47.848;9.000;2023-03-31T06:14:41;94696.91;;;8.45;100.00
56038;BME280;41907;47.848;9.000;2023-03-31T06:17:06;94682.03;;;8.53;100.00
56038;BME280;41907;47.848;9.000;2023-03-31T06:19:32;94674.31;;;8.60;100.00
56038;BME280;41907;47.848;9.000;2023-03-31T06:21:57;94668.16;;;8.77;100.00
56038;BME280;41907;47.848;9.000;2023-03-31T06:24:22;94682.34;;;8.81;100.00
56038;BME280;41907;47.848;9.000;2023-03-31T06:26:47;94676.28;;;9.01;100.00
56038;BME280;41907;47.848;9.000;2023-03-31T06:29:13;94658.84;;;9.12;100.00
56038;BME280;41907;47.848;9.000;2023-03-31T06:31:38;94662.63;;;9.11;100.00
56038;BME280;41907;47.848;9.000;2023-03-31T06:34:03;94664.81;;;9.09;100.00
56038;BME280;41907;47.848;9.000;2023-03-31T06:36:28;94672.94;;;9.13;100.00
56038;BME280;41907;47.848;9.000;2023-03-31T06:38:54;94656.72;;;9.06;100.00
56038;BME280;41907;47.848;9.000;2023-03-31T06:41:19;94667.66;;;9.25;100.00
56038;BME280;41907;47.848;9.000;2023-03-31T06:43:46;94674.75;;;9.21;100.00
56038;BME280;41907;47.848;9.000;2023-03-31T06:46:11;94675.41;;;9.18;100.00
56038;BME280;41907;47.848;9.000;2023-03-31T06:48:37;94664.56;;;9.23;100.00
56038;BME280;41907;47.848;9.000;2023-03-31T06:51:03;94661.97;;;8.93;100.00
56038;BME280;41907;47.848;9.000;2023-03-31T06:53:29;94663.44;;;8.82;100.00
56038;BME280;41907;47.848;9.000;2023-03-31T06:55:54;94666.28;;;8.77;100.00
56038;BME280;41907;47.848;9.000;2023-03-31T06:58:20;94676.56;;;8.79;100.00
56038;BME280;41907;47.848;9.000;2023-03-31T07:00:45;94670.03;;;9.06;100.00
56038;BME280;41907;47.848;9.000;2023-03-31T07:03:11;94669.75;;;9.40;100.00
56038;BME280;41907;47.848;9.000;2023-03-31T07:05:36;94687.59;;;9.93;100.00
56038;BME280;41907;47.848;9.000;2023-03-31T07:08:03;94707.03;;;9.94;100.00
56038;BME280;41907;47.848;9.000;2023-03-31T07:10:29;94715.09;;;9.85;100.00
56038;BME280;41907;47.848;9.000;2023-03-31T07:12:55;94722.44;;;9.88;100.00
56038;BME280;41907;47.848;9.000;2023-03-31T07:15:20;94760.69;;;9.84;100.00
56038;BME280;41907;47.848;9.000;2023-03-31T07:17:45;94803.63;;;9.61;100.00
56038;BME280;41907;47.848;9.000;2023-03-31T07:20:14;94855.03;;;9.53;100.00
56038;BME280;41907;47.848;9.000;2023-03-31T07:22:40;94845.66;;;9.47;100.00
56038;BME280;41907;47.848;9.000;2023-03-31T07:25:06;94843.06;;;9.39;100.00
56038;BME280;41907;47.848;9.000;2023-03-31T07:27:32;94821.56;;;9.44;100.00
56038;BME280;41907;47.848;9.000;2023-03-31T07:29:57;94838.66;;;9.43;100.00
56038;BME280;41907;47.848;9.000;2023-03-31T07:32:22;94813.88;;;9.51;100.00
56038;BME280;41907;47.848;9.000;2023-03-31T07:34:47;94789.72;;;9.56;100.00
56038;BME280;41907;47.848;9.000;2023-03-31T07:37:13;94776.22;;;9.40;100.00
56038;BME280;41907;47.848;9.000;2023-03-31T07:39:38;94734.59;;;9.56;100.00
56038;BME280;41907;47.848;9.000;2023-03-31T07:42:03;94734.06;;;9.63;100.00
56038;BME280;41907;47.848;9.000;2023-03-31T07:44:28;94732.78;;;9.90;100.00
56038;BME280;41907;47.848;9.000;2023-03-31T07:46:54;94732.22;;;10.87;100.00
56038;BME280;41907;47.848;9.000;2023-03-31T07:49:19;94729.50;;;13.72;100.00
56038;BME280;41907;47.848;9.000;2023-03-31T07:51:45;94730.56;;;16.26;80.91
56038;BME280;41907;47.848;9.000;2023-03-31T07:54:10;94734.63;;;16.80;78.71
56038;BME280;41907;47.848;9.000;2023-03-31T07:56:35;94728.75;;;17.62;71.08
56038;BME280;41907;47.848;9.000;2023-03-31T07:59:00;94737.59;;;16.71;73.53
56038;BME280;41907;47.848;9.000;2023-03-31T08:01:26;94735.75;;;15.25;81.42
56038;BME280;41907;47.848;9.000;2023-03-31T08:03:53;94749.75;;;14.28;86.94
56038;BME280;41907;47.848;9.000;2023-03-31T08:06:20;94760.84;;;13.53;92.67
56038;BME280;41907;47.848;9.000;2023-03-31T08:08:45;94796.19;;;12.80;94.54
56038;BME280;41907;47.848;9.000;2023-03-31T08:11:11;94808.97;;;12.43;99.16
56038;BME280;41907;47.848;9.000;2023-03-31T08:13:36;94811.66;;;12.15;100.00
56038;BME280;41907;47.848;9.000;2023-03-31T08:16:02;94780.91;;;12.09;100.00
56038;BME280;41907;47.848;9.000;2023-03-31T08:18:27;94768.38;;;11.97;100.00
56038;BME280;41907;47.848;9.000;2023-03-31T08:20:53;94734.03;;;12.71;100.00
56038;BME280;41907;47.848;9.000;2023-03-31T08:23:18;94714.09;;;15.97;84.58
56038;BME280;41907;47.848;9.000;2023-03-31T08:25:43;94711.69;;;16.96;75.06
56038;BME280;41907;47.848;9.000;2023-03-31T08:28:08;94703.34;;;18.68;65.41
56038;BME280;41907;47.848;9.000;2023-03-31T08:30:38;94712.47;;;20.09;58.73
56038;BME280;41907;47.848;9.000;2023-03-31T08:33:03;94710.88;;;20.91;54.24
56038;BME280;41907;47.848;9.000;2023-03-31T08:35:28;94714.06;;;21.75;48.85
56038;BME280;41907;47.848;9.000;2023-03-31T08:37:54;94719.97;;;22.38;48.20
56038;BME280;41907;47.848;9.000;2023-03-31T08:40:20;94725.00;;;24.14;45.71
56038;BME280;41907;47.848;9.000;2023-03-31T08:42:50;94735.25;;;24.65;41.15
56038;BME280;41907;47.848;9.000;2023-03-31T08:45:36;94732.41;;;24.13;41.03
56038;BME280;41907;47.848;9.000;2023-03-31T08:48:07;94728.94;;;24.88;40.08
56038;BME280;41907;47.848;9.000;2023-03-31T08:50:36;94724.19;;;24.92;39.10
56038;BME280;41907;47.848;9.000;2023-03-31T08:55:33;94718.59;;;24.99;38.46
56038;BME280;41907;47.848;9.000;2023-03-31T08:58:05;94717.91;;;25.11;38.27
56038;BME280;41907;47.848;9.000;2023-03-31T09:00:39;94730.19;;;25.68;37.92
56038;BME280;41907;47.848;9.000;2023-03-31T09:03:14;94712.97;;;25.55;37.15
56038;BME280;41907;47.848;9.000;2023-03-31T09:05:47;94707.38;;;24.22;38.76
56038;BME280;41907;47.848;9.000;2023-03-31T09:10:59;94702.53;;;25.01;38.39
56038;BME280;41907;47.848;9.000;2023-03-31T09:16:01;94700.56;;;24.30;36.54
56038;BME280;41907;47.848;9.000;2023-03-31T09:18:32;94702.28;;;25.12;36.59
56038;BME280;41907;47.848;9.000;2023-03-31T09:21:03;94695.13;;;25.50;34.27
56038;BME280;41907;47.848;9.000;2023-03-31T09:23:32;94699.59;;;24.40;36.18
56038;BME280;41907;47.848;9.000;2023-03-31T09:25:58;94716.28;;;21.46;39.88
56038;BME280;41907;47.848;9.000;2023-03-31T09:28:32;94720.31;;;18.82;45.74
56038;BME280;41907;47.848;9.000;2023-03-31T09:30:59;94729.69;;;17.36;50.93
56038;BME280;41907;47.848;9.000;2023-03-31T09:33:26;94709.28;;;16.47;53.13
56038;BME280;41907;47.848;9.000;2023-03-31T09:35:56;94679.38;;;15.85;55.16
56038;BME280;41907;47.848;9.000;2023-03-31T09:38:21;94691.09;;;15.70;56.81
56038;BME280;41907;47.848;9.000;2023-03-31T09:40:46;94668.09;;;15.16;57.71
56038;BME280;41907;47.848;9.000;2023-03-31T09:43:20;94670.34;;;14.88;61.35
56038;BME280;41907;47.848;9.000;2023-03-31T09:45:46;94674.19;;;14.41;62.91
56038;BME280;41907;47.848;9.000;2023-03-31T09:48:22;94674.78;;;14.35;60.76
56038;BME280;41907;47.848;9.000;2023-03-31T09:51:00;94681.09;;;14.42;63.16
56038;BME280;41907;47.848;9.000;2023-03-31T09:56:07;94703.56;;;13.76;65.56
56038;BME280;41907;47.848;9.000;2023-03-31T09:58:53;94714.69;;;13.59;69.37
56038;BME280;41907;47.848;9.000;2023-03-31T10:01:20;94683.38;;;13.44;71.68
56038;BME280;41907;47.848;9.000;2023-03-31T10:03:50;94684.06;;;13.41;71.18
56038;BME280;41907;47.848;9.000;2023-03-31T10:06:16;94651.88;;;13.37;66.95
56038;BME280;41907;47.848;9.000;2023-03-31T10:08:42;94653.19;;;14.05;65.64
56038;BME280;41907;47.848;9.000;2023-03-31T10:11:11;94645.31;;;14.58;61.67
56038;BME280;41907;47.848;9.000;2023-03-31T10:14:10;94637.50;;;14.49;57.24
56038;BME280;41907;47.848;9.000;2023-03-31T10:18:53;94629.03;;;17.11;52.07
56038;BME280;41907;47.848;9.000;2023-03-31T10:21:26;94618.03;;;18.91;48.27
56038;BME280;41907;47.848;9.000;2023-03-31T10:23:52;94617.59;;;19.28;47.40
56038;BME280;41907;47.848;9.000;2023-03-31T10:26:27;94592.91;;;20.21;46.27
56038;BME280;41907;47.848;9.000;2023-03-31T10:28:52;94595.19;;;20.81;44.56
56038;BME280;41907;47.848;9.000;2023-03-31T10:31:19;94604.41;;;20.42;43.79
56038;BME280;41907;47.848;9.000;2023-03-31T10:33:48;94589.25;;;20.49;42.69
56038;BME280;41907;47.848;9.000;2023-03-31T10:36:17;94596.53;;;20.00;44.28
56038;BME280;41907;47.848;9.000;2023-03-31T10:38:45;94582.09;;;20.76;43.23
56038;BME280;41907;47.848;9.000;2023-03-31T10:41:11;94583.34;;;21.09;42.49
56038;BME280;41907;47.848;9.000;2023-03-31T10:43:42;94588.19;;;20.35;41.92
56038;BME280;41907;47.848;9.000;2023-03-31T10:46:11;94569.69;;;20.20;42.56
56038;BME280;41907;47.848;9.000;2023-03-31T10:48:38;94586.03;;;20.09;42.17
56038;BME280;41907;47.848;9.000;2023-03-31T10:51:09;94587.06;;;19.49;44.24
56038;BME280;41907;47.848;9.000;2023-03-31T10:53:42;94579.41;;;19.09;44.17
56038;BME280;41907;47.848;9.000;2023-03-31T11:12:11;94537.75;;;15.96;49.64
56038;BME280;41907;47.848;9.000;2023-03-31T11:19:37;94523.31;;;15.71;51.37
56038;BME280;41907;47.848;9.000;2023-03-31T11:45:31;94536.25;;;14.99;55.75
56038;BME280;41907;47.848;9.000;2023-03-31T11:48:01;94529.63;;;15.19;52.32
56038;BME280;41907;47.848;9.000;2023-03-31T11:50:30;94501.06;;;15.07;52.74
56038;BME280;41907;47.848;9.000;2023-03-31T11:53:01;94522.91;;;15.06;52.74
56038;BME280;41907;47.848;9.000;2023-03-31T11:55:29;94553.03;;;14.92;50.53
56038;BME280;41907;47.848;9.000;2023-03-31T12:00:23;94542.63;;;14.61;51.93
56038;BME280;41907;47.848;9.000;2023-03-31T12:05:17;94544.69;;;14.97;51.44
56038;BME280;41907;47.848;9.000;2023-03-31T12:07:47;94511.78;;;15.37;49.59
56038;BME280;41907;47.848;9.000;2023-03-31T12:12:42;94513.34;;;16.70;49.27
56038;BME280;41907;47.848;9.000;2023-03-31T12:15:13;94513.72;;;17.41;46.37
56038;BME280;41907;47.848;9.000;2023-03-31T12:17:42;94485.97;;;17.34;42.72
56038;BME280;41907;47.848;9.000;2023-03-31T12:22:53;94506.78;;;17.40;43.89
56038;BME280;41907;47.848;9.000;2023-03-31T12:25:19;94526.75;;;17.25;45.74
56038;BME280;41907;47.848;9.000;2023-03-31T12:27:50;94506.41;;;17.56;43.54
56038;BME280;41907;47.848;9.000;2023-03-31T12:30:26;94509.22;;;17.88;43.33
56038;BME280;41907;47.848;9.000;2023-03-31T12:32:54;94507.66;;;17.76;43.88
56038;BME280;41907;47.848;9.000;2023-03-31T12:35:24;94510.94;;;17.17;42.67
56038;BME280;41907;47.848;9.000;2023-03-31T12:40:30;94592.50;;;15.78;44.42
56038;BME280;41907;47.848;9.000;2023-03-31T12:45:30;94688.97;;;12.57;63.26
56038;BME280;41907;47.848;9.000;2023-03-31T12:58:26;94584.94;;;11.61;74.21
56038;BME280;41907;47.848;9.000;2023-03-31T13:14:11;94542.22;;;12.90;58.64
56038;BME280;41907;47.848;9.000;2023-03-31T13:16:38;94530.63;;;13.40;56.90
56038;BME280;41907;47.848;9.000;2023-03-31T13:19:03;94536.50;;;13.69;57.13
56038;BME280;41907;47.848;9.000;2023-03-31T13:21:29;94523.59;;;13.97;55.46
56038;BME280;41907;47.848;9.000;2023-03-31T13:23:58;94521.22;;;14.15;54.76
56038;BME280;41907;47.848;9.000;2023-03-31T13:34:22;94529.94;;;14.58;52.80
56038;BME280;41907;47.848;9.000;2023-03-31T13:42:24;94536.06;;;14.35;53.68
56038;BME280;41907;47.848;9.000;2023-03-31T13:45:12;94544.59;;;14.14;52.92
56038;BME280;41907;47.848;9.000;2023-03-31T13:56:03;94536.84;;;13.45;55.28
56038;BME280;41907;47.848;9.000;2023-03-31T13:58:39;94525.47;;;13.51;55.07
56038;BME280;41907;47.848;9.000;2023-03-31T14:09:00;94515.69;;;13.82;55.53
56038;BME280;41907;47.848;9.000;2023-03-31T14:11:28;94516.03;;;14.03;53.94
56038;BME280;41907;47.848;9.000;2023-03-31T14:14:00;94499.72;;;13.89;55.19
56038;BME280;41907;47.848;9.000;2023-03-31T14:16:31;94492.72;;;14.07;55.60
56038;BME280;41907;47.848;9.000;2023-03-31T14:19:03;94480.25;;;13.92;55.16
56038;BME280;41907;47.848;9.000;2023-03-31T14:21:45;94472.88;;;13.85;56.31
56038;BME280;41907;47.848;9.000;2023-03-31T14:24:23;94463.53;;;13.75;55.87
56038;BME280;41907;47.848;9.000;2023-03-31T14:37:12;94435.88;;;13.07;59.35
56038;BME280;41907;47.848;9.000;2023-03-31T14:39:48;94449.06;;;13.15;58.63
56038;BME280;41907;47.848;9.000;2023-03-31T14:42:15;94454.91;;;12.82;59.66
56038;BME280;41907;47.848;9.000;2023-03-31T14:44:41;94474.19;;;12.72;60.11
56038;BME280;41907;47.848;9.000;2023-03-31T14:47:12;94546.97;;;12.62;62.06
56038;BME280;41907;47.848;9.000;2023-03-31T14:49:37;94591.66;;;12.46;66.00
56038;BME280;41907;47.848;9.000;2023-03-31T14:52:16;94621.84;;;11.71;75.95
56038;BME280;41907;47.848;9.000;2023-03-31T14:54:42;94590.25;;;10.65;90.02
56038;BME280;41907;47.848;9.000;2023-03-31T14:57:08;94603.00;;;10.60;93.34
56038;BME280;41907;47.848;9.000;2023-03-31T14:59:35;94584.81;;;10.25;97.87
56038;BME280;41907;47.848;9.000;2023-03-31T15:02:02;94572.09;;;9.98;100.00
56038;BME280;41907;47.848;9.000;2023-03-31T15:04:29;94566.97;;;9.93;100.00
56038;BME280;41907;47.848;9.000;2023-03-31T15:06:54;94575.91;;;10.21;100.00
56038;BME280;41907;47.848;9.000;2023-03-31T15:11:52;94618.75;;;10.16;100.00
56038;BME280;41907;47.848;9.000;2023-03-31T15:14:18;94623.88;;;10.21;100.00
56038;BME280;41907;47.848;9.000;2023-03-31T15:16:44;94620.59;;;10.03;100.00
56038;BME280;41907;47.848;9.000;2023-03-31T15:21:38;94626.53;;;9.76;100.00
56038;BME280;41907;47.848;9.000;2023-03-31T15:24:03;94622.53;;;9.82;100.00
56038;BME280;41907;47.848;9.000;2023-03-31T15:26:30;94624.59;;;9.64;100.00
56038;BME280;41907;47.848;9.000;2023-03-31T15:28:59;94617.06;;;9.33;100.00
56038;BME280;41907;47.848;9.000;2023-03-31T15:31:26;94644.72;;;9.20;100.00
56038;BME280;41907;47.848;9.000;2023-03-31T15:33:51;94648.28;;;9.04;100.00
56038;BME280;41907;47.848;9.000;2023-03-31T15:36:17;94627.63;;;8.80;100.00
56038;BME280;41907;47.848;9.000;2023-03-31T15:38:45;94611.66;;;8.80;100.00
56038;BME280;41907;47.848;9.000;2023-03-31T15:41:14;94610.03;;;8.96;100.00
56038;BME280;41907;47.848;9.000;2023-03-31T15:46:07;94577.66;;;8.94;100.00
56038;BME280;41907;47.848;9.000;2023-03-31T15:48:35;94569.38;;;9.08;100.00
56038;BME280;41907;47.848;9.000;2023-03-31T15:51:05;94571.47;;;9.23;100.00
56038;BME280;41907;47.848;9.000;2023-03-31T15:53:35;94567.94;;;9.31;100.00
56038;BME280;41907;47.848;9.000;2023-03-31T15:56:01;94565.69;;;9.54;100.00
56038;BME280;41907;47.848;9.000;2023-03-31T16:01:10;94564.59;;;9.67;100.00
56038;BME280;41907;47.848;9.000;2023-03-31T16:03:39;94564.09;;;9.86;100.00
56038;BME280;41907;47.848;9.000;2023-03-31T16:06:06;94559.66;;;9.78;100.00
56038;BME280;41907;47.848;9.000;2023-03-31T16:08:37;94549.41;;;9.67;100.00
56038;BME280;41907;47.848;9.000;2023-03-31T16:11:06;94549.97;;;9.73;100.00
56038;BME280;41907;47.848;9.000;2023-03-31T16:13:33;94540.69;;;9.79;100.00
56038;BME280;41907;47.848;9.000;2023-03-31T16:16:04;94544.06;;;9.55;99.44
56038;BME280;41907;47.848;9.000;2023-03-31T16:18:38;94545.56;;;9.44;100.00
56038;BME280;41907;47.848;9.000;2023-03-31T16:21:04;94549.56;;;9.38;100.00